SBPL/PNZ METAR and TAF weather

Enter ICAO airport designator
Station Type Date Time Source
SBPL METAR 2020/08/15 16:00 UTC NOAA

SBPL 151600Z 11010KT CAVOK 31/15 Q1013


Station Type Date Time Source
SBPL Decoded METAR 2020/08/15 16:00 UTC NOAA

Petrolina , Brazil (SBPL) 09-21S 040-33W
Aug 15, 2020 - 12:00 PM EDT / 2020.08.15 1600 UTC
Wind: from the ESE (110 degrees) at 12 MPH (10 KT):0
Visibility: greater than 7 mile(s):0
Temperature: 87 F (31 C)
Dew Point: 59 F (15 C)
Relative Humidity: 37%
Pressure (altimeter): 29.91 in. Hg (1013 hPa)
ob: SBPL 151600Z 11010KT CAVOK 31/15 Q1013
cycle: 16

Station Type Date Time Source
SBPL TAF 2020/08/15 18:57 UTC NOAA

TAF SBPL 151500Z 1518/1618 14012KT 9999 FEW035 TX30/1518Z TN22/1609Z
BECMG 1521/1523 16006KT CAVOK
BECMG 1602/1604 14012KT
BECMG 1611/1613 9999 SCT025
BECMG 1615/1617 17010KT SCT033
RMK PAY

Example: see airport list